»·PEaware :: N16RD KSNA-KBUR

N16RD :: KSNA-KBUR

FLIGHT INFORMATION

Flight Status: Arrived
Operator: Privately registered:
United States
More flights under this callsign
Pilot: Brett B. (12105)
Aircraft: CESSNA 182 SKYLANE
(C182)
More flights by this aircraft type
Origin: KSNA John Wayne-Orange Co
United States
Destination: KBUR Bob Hope-Burbank
United States
More flights between these airports :: More routes between these airports
Route: +SLI V23 POPPR SMO SILEX
File this flight plan on PilotEdge
Remarks: I-3 Test
Altitude:
(Current/Filed)
4,000ft
Speed:
(Current/Filed)
125kts
Departed: 17-Oct-17 07:38 PM
Arrived: 17-Oct-17 08:15 PM
Distance/Time
Traveled:
40nm/0:37
Distance/Time
To Go:
Arrived

Flight Plot

Page will automatically refresh every two minutes.


Map Options




Map Legend


Flown Route
Filed Route
Departure Airport
Arrival Airport
Navaid (VOR, NDB)
Fix

Horizontal Profiles

Position Reports

Time Latitude Longitude Heading Altitude Ground
Speed
17-Oct-17 19:19 33.675231 -117.871787 278 59ft 0kts
17-Oct-17 19:20 33.675231 -117.871787 278 59ft 0kts
17-Oct-17 19:21 33.675231 -117.871788 278 59ft 0kts
17-Oct-17 19:22 33.675231 -117.871789 278 59ft 0kts
17-Oct-17 19:23 33.675231 -117.871789 278 59ft 0kts
17-Oct-17 19:24 33.675231 -117.871790 278 59ft 0kts
17-Oct-17 19:25 33.675231 -117.871791 278 59ft 0kts
17-Oct-17 19:26 33.675231 -117.871791 278 59ft 0kts
17-Oct-17 19:27 33.675231 -117.871792 278 59ft 0kts
17-Oct-17 19:28 33.675231 -117.871792 278 59ft 0kts
17-Oct-17 19:29 33.675231 -117.871793 278 59ft 0kts
17-Oct-17 19:30 33.675231 -117.871793 278 59ft 0kts
17-Oct-17 19:31 33.675231 -117.871794 278 59ft 0kts
17-Oct-17 19:32 33.675232 -117.871795 278 59ft 0kts
17-Oct-17 19:33 33.675232 -117.871795 278 59ft 0kts
17-Oct-17 19:34 33.675232 -117.871796 279 59ft 0kts
17-Oct-17 19:35 33.675232 -117.871796 279 59ft 0kts
17-Oct-17 19:36 33.675232 -117.871796 279 59ft 0kts
17-Oct-17 19:37 33.675232 -117.871796 279 59ft 0kts
17-Oct-17 19:38 33.675006 -117.871880 137 59ft 7kts
17-Oct-17 19:39 33.677266 -117.869406 27 59ft 10kts
17-Oct-17 19:40 33.680926 -117.867129 52 59ft 12kts
17-Oct-17 19:41 33.680792 -117.866369 118 59ft 0kts
17-Oct-17 19:42 33.680037 -117.866113 207 59ft 24kts
17-Oct-17 19:43 33.661129 -117.882696 231 808ft 112kts
17-Oct-17 19:44 33.640541 -117.915478 241 1574ft 127kts
17-Oct-17 19:45 33.663245 -117.937259 341 2428ft 119kts
17-Oct-17 19:46 33.662024 -117.967565 233 3265ft 116kts
17-Oct-17 19:47 33.638347 -118.003672 232 4012ft 128kts
17-Oct-17 19:48 33.618053 -118.034223 232 4009ft 147kts
17-Oct-17 19:49 33.596154 -118.075299 278 3988ft 149kts
17-Oct-17 19:50 33.631842 -118.086127 2 4000ft 146kts
17-Oct-17 19:51 33.672583 -118.083165 2 3999ft 146kts
17-Oct-17 19:52 33.713150 -118.080211 2 4000ft 146kts
17-Oct-17 19:53 33.753821 -118.077247 2 4000ft 146kts
17-Oct-17 19:54 33.790846 -118.085094 293 4006ft 144kts
17-Oct-17 19:55 33.802788 -118.131430 292 4005ft 147kts
17-Oct-17 19:56 33.816520 -118.177869 288 3999ft 146kts
17-Oct-17 19:57 33.829228 -118.224342 288 4010ft 147kts
17-Oct-17 19:58 33.841785 -118.271109 288 4000ft 146kts
17-Oct-17 19:59 33.862629 -118.313870 318 3979ft 153kts
17-Oct-17 20:00 33.893705 -118.349467 318 3973ft 153kts
17-Oct-17 20:01 33.927388 -118.381790 322 3973ft 153kts
17-Oct-17 20:02 33.961713 -118.412893 323 3974ft 152kts
17-Oct-17 20:03 33.995243 -118.443295 323 3987ft 149kts
17-Oct-17 20:04 34.028673 -118.471551 325 4002ft 146kts
17-Oct-17 20:05 34.062483 -118.498888 325 4000ft 146kts
17-Oct-17 20:06 34.093571 -118.532510 304 3988ft 150kts
17-Oct-17 20:07 34.116923 -118.575914 303 3977ft 154kts
17-Oct-17 20:08 34.139432 -118.617733 303 3999ft 146kts
17-Oct-17 20:09 34.161757 -118.658760 303 3999ft 146kts
17-Oct-17 20:10 34.187730 -118.693953 0 3994ft 146kts
17-Oct-17 20:11 34.222337 -118.669276 62 4002ft 153kts
17-Oct-17 20:12 34.237215 -118.621823 97 3868ft 155kts
17-Oct-17 20:13 34.214053 -118.576041 123 3138ft 160kts
17-Oct-17 20:14 34.197654 -118.535781 94 2996ft 121kts
17-Oct-17 20:15 34.195120 -118.495832 93 3000ft 119kts
17-Oct-17 20:16 34.196826 -118.455916 76 2644ft 106kts
17-Oct-17 20:17 34.198230 -118.421447 92 1653ft 99kts
17-Oct-17 20:18 34.198197 -118.390944 91 1116ft 89kts
17-Oct-17 20:19 34.197839 -118.364298 91 724ft 51kts
17-Oct-17 20:20 34.198327 -118.360228 6 724ft 0kts
17-Oct-17 20:21 34.198647 -118.360209 359 724ft 13kts
17-Oct-17 20:22 34.199496 -118.359873 88 724ft 0kts
17-Oct-17 20:23 34.199496 -118.359873 88 724ft 0kts
17-Oct-17 20:24 34.199496 -118.359873 88 724ft 0kts
17-Oct-17 20:25 34.199496 -118.359873 88 724ft 0kts
17-Oct-17 20:26 34.199496 -118.359873 88 724ft 0kts
17-Oct-17 20:27 34.199496 -118.359873 88 724ft 0kts
17-Oct-17 20:28 34.199496 -118.359873 88 724ft 0kts
17-Oct-17 20:29 34.199496 -118.359873 88 724ft 0kts
17-Oct-17 20:30 34.199496 -118.359873 88 724ft 0kts
17-Oct-17 20:31 34.199496 -118.359873 88 724ft 0kts
17-Oct-17 20:32 34.199496 -118.359873 88 724ft 0kts
17-Oct-17 20:33 34.199496 -118.359873 88 724ft 0kts
17-Oct-17 20:34 34.199496 -118.359873 88 724ft 0kts

Navigation Log

Ident Type
Flight plan parsing failed, navigation log unavailable